sensor_id;sensor_type;location;lat;lon;timestamp;P1;durP1;ratioP1;P2;durP2;ratioP2
8490;SDS011;4282;49.986;7.938;2024-01-16T00:01:44;6.13;;;3.43;;
8490;SDS011;4282;49.986;7.938;2024-01-16T00:04:13;4.40;;;3.10;;
8490;SDS011;4282;49.986;7.938;2024-01-16T00:06:41;4.67;;;3.27;;
8490;SDS011;4282;49.986;7.938;2024-01-16T00:09:10;6.57;;;3.60;;
8490;SDS011;4282;49.986;7.938;2024-01-16T00:11:39;4.73;;;3.47;;
8490;SDS011;4282;49.986;7.938;2024-01-16T00:14:10;5.63;;;3.40;;
8490;SDS011;4282;49.986;7.938;2024-01-16T00:16:41;4.23;;;3.27;;
8490;SDS011;4282;49.986;7.938;2024-01-16T00:19:10;7.00;;;3.47;;
8490;SDS011;4282;49.986;7.938;2024-01-16T00:21:39;5.73;;;3.77;;
8490;SDS011;4282;49.986;7.938;2024-01-16T00:24:07;4.63;;;3.63;;
8490;SDS011;4282;49.986;7.938;2024-01-16T00:26:35;6.80;;;3.40;;
8490;SDS011;4282;49.986;7.938;2024-01-16T00:29:03;5.03;;;3.50;;
8490;SDS011;4282;49.986;7.938;2024-01-16T00:31:34;5.03;;;3.17;;
8490;SDS011;4282;49.986;7.938;2024-01-16T00:34:03;9.40;;;3.70;;
8490;SDS011;4282;49.986;7.938;2024-01-16T00:36:31;6.70;;;3.80;;
8490;SDS011;4282;49.986;7.938;2024-01-16T00:38:59;9.77;;;3.80;;
8490;SDS011;4282;49.986;7.938;2024-01-16T00:41:28;5.73;;;3.43;;
8490;SDS011;4282;49.986;7.938;2024-01-16T00:43:56;5.50;;;3.60;;
8490;SDS011;4282;49.986;7.938;2024-01-16T00:46:24;6.07;;;3.90;;
8490;SDS011;4282;49.986;7.938;2024-01-16T00:48:55;5.87;;;3.53;;
8490;SDS011;4282;49.986;7.938;2024-01-16T00:51:23;5.03;;;3.50;;
8490;SDS011;4282;49.986;7.938;2024-01-16T00:53:51;7.77;;;3.23;;
8490;SDS011;4282;49.986;7.938;2024-01-16T00:56:19;7.87;;;4.50;;
8490;SDS011;4282;49.986;7.938;2024-01-16T00:58:48;10.83;;;4.93;;
8490;SDS011;4282;49.986;7.938;2024-01-16T01:01:16;8.13;;;4.00;;
8490;SDS011;4282;49.986;7.938;2024-01-16T01:03:44;7.73;;;4.30;;
8490;SDS011;4282;49.986;7.938;2024-01-16T01:06:15;5.30;;;4.23;;
8490;SDS011;4282;49.986;7.938;2024-01-16T01:08:44;7.10;;;4.50;;
8490;SDS011;4282;49.986;7.938;2024-01-16T01:11:12;4.83;;;3.37;;
8490;SDS011;4282;49.986;7.938;2024-01-16T01:13:40;6.17;;;3.97;;
8490;SDS011;4282;49.986;7.938;2024-01-16T01:16:08;6.03;;;4.27;;
8490;SDS011;4282;49.986;7.938;2024-01-16T01:18:37;5.37;;;3.60;;
8490;SDS011;4282;49.986;7.938;2024-01-16T01:21:05;9.43;;;3.90;;
8490;SDS011;4282;49.986;7.938;2024-01-16T01:23:36;4.83;;;3.90;;
8490;SDS011;4282;49.986;7.938;2024-01-16T01:26:04;6.80;;;4.43;;
8490;SDS011;4282;49.986;7.938;2024-01-16T01:28:33;6.37;;;3.73;;
8490;SDS011;4282;49.986;7.938;2024-01-16T01:31:01;5.00;;;3.70;;
8490;SDS011;4282;49.986;7.938;2024-01-16T01:33:30;5.47;;;3.33;;
8490;SDS011;4282;49.986;7.938;2024-01-16T01:35:58;6.07;;;3.57;;
8490;SDS011;4282;49.986;7.938;2024-01-16T01:38:26;6.47;;;3.80;;
8490;SDS011;4282;49.986;7.938;2024-01-16T01:40:57;5.83;;;3.57;;
8490;SDS011;4282;49.986;7.938;2024-01-16T01:43:25;4.83;;;2.97;;
8490;SDS011;4282;49.986;7.938;2024-01-16T01:46:09;5.87;;;3.23;;
8490;SDS011;4282;49.986;7.938;2024-01-16T01:48:38;7.03;;;3.57;;
8490;SDS011;4282;49.986;7.938;2024-01-16T01:51:08;5.77;;;3.60;;
8490;SDS011;4282;49.986;7.938;2024-01-16T01:53:39;8.60;;;3.60;;
8490;SDS011;4282;49.986;7.938;2024-01-16T01:56:11;8.23;;;3.53;;
8490;SDS011;4282;49.986;7.938;2024-01-16T01:58:43;8.40;;;3.67;;
8490;SDS011;4282;49.986;7.938;2024-01-16T02:01:12;7.87;;;3.83;;
8490;SDS011;4282;49.986;7.938;2024-01-16T02:03:42;5.13;;;3.37;;
8490;SDS011;4282;49.986;7.938;2024-01-16T02:06:11;6.93;;;3.47;;
8490;SDS011;4282;49.986;7.938;2024-01-16T02:08:41;5.03;;;3.70;;
8490;SDS011;4282;49.986;7.938;2024-01-16T02:11:12;6.97;;;4.27;;
8490;SDS011;4282;49.986;7.938;2024-01-16T02:13:40;5.63;;;3.67;;
8490;SDS011;4282;49.986;7.938;2024-01-16T02:16:17;7.03;;;3.70;;
8490;SDS011;4282;49.986;7.938;2024-01-16T02:18:46;6.57;;;3.30;;
8490;SDS011;4282;49.986;7.938;2024-01-16T02:21:15;6.47;;;3.30;;
8490;SDS011;4282;49.986;7.938;2024-01-16T02:23:48;5.67;;;3.27;;
8490;SDS011;4282;49.986;7.938;2024-01-16T02:26:17;5.13;;;3.10;;
8490;SDS011;4282;49.986;7.938;2024-01-16T02:28:45;6.37;;;3.70;;
8490;SDS011;4282;49.986;7.938;2024-01-16T02:31:13;5.47;;;3.20;;
8490;SDS011;4282;49.986;7.938;2024-01-16T02:33:42;6.73;;;3.17;;
8490;SDS011;4282;49.986;7.938;2024-01-16T02:36:10;7.47;;;3.50;;
8490;SDS011;4282;49.986;7.938;2024-01-16T02:38:38;7.70;;;3.77;;
8490;SDS011;4282;49.986;7.938;2024-01-16T02:41:11;8.27;;;3.30;;
8490;SDS011;4282;49.986;7.938;2024-01-16T02:43:41;6.53;;;3.37;;
8490;SDS011;4282;49.986;7.938;2024-01-16T02:46:09;6.60;;;3.73;;
8490;SDS011;4282;49.986;7.938;2024-01-16T02:48:37;6.03;;;3.80;;
8490;SDS011;4282;49.986;7.938;2024-01-16T02:51:07;4.73;;;3.27;;
8490;SDS011;4282;49.986;7.938;2024-01-16T02:53:35;10.27;;;3.33;;
8490;SDS011;4282;49.986;7.938;2024-01-16T02:56:04;7.00;;;3.80;;
8490;SDS011;4282;49.986;7.938;2024-01-16T02:58:35;5.63;;;3.03;;
8490;SDS011;4282;49.986;7.938;2024-01-16T03:01:03;6.27;;;3.30;;
8490;SDS011;4282;49.986;7.938;2024-01-16T03:03:32;7.80;;;3.10;;
8490;SDS011;4282;49.986;7.938;2024-01-16T03:06:00;7.07;;;3.57;;
8490;SDS011;4282;49.986;7.938;2024-01-16T03:08:29;7.67;;;3.20;;
8490;SDS011;4282;49.986;7.938;2024-01-16T03:10:57;7.03;;;3.40;;
8490;SDS011;4282;49.986;7.938;2024-01-16T03:13:25;4.90;;;3.37;;
8490;SDS011;4282;49.986;7.938;2024-01-16T03:15:56;4.47;;;2.83;;
8490;SDS011;4282;49.986;7.938;2024-01-16T03:18:24;6.07;;;3.03;;
8490;SDS011;4282;49.986;7.938;2024-01-16T03:20:52;4.87;;;2.77;;
8490;SDS011;4282;49.986;7.938;2024-01-16T03:23:20;5.23;;;2.93;;
8490;SDS011;4282;49.986;7.938;2024-01-16T03:25:49;7.53;;;3.40;;
8490;SDS011;4282;49.986;7.938;2024-01-16T03:28:17;8.53;;;3.30;;
8490;SDS011;4282;49.986;7.938;2024-01-16T03:30:45;4.83;;;3.70;;
8490;SDS011;4282;49.986;7.938;2024-01-16T03:33:16;4.90;;;3.10;;
8490;SDS011;4282;49.986;7.938;2024-01-16T03:35:45;7.60;;;3.40;;
8490;SDS011;4282;49.986;7.938;2024-01-16T03:38:13;5.97;;;3.50;;
8490;SDS011;4282;49.986;7.938;2024-01-16T03:40:42;3.90;;;2.60;;
8490;SDS011;4282;49.986;7.938;2024-01-16T03:43:10;8.57;;;3.37;;
8490;SDS011;4282;49.986;7.938;2024-01-16T03:45:38;5.30;;;3.60;;
8490;SDS011;4282;49.986;7.938;2024-01-16T03:48:07;7.57;;;3.17;;
8490;SDS011;4282;49.986;7.938;2024-01-16T03:50:38;9.60;;;3.33;;
8490;SDS011;4282;49.986;7.938;2024-01-16T03:53:08;4.97;;;2.53;;
8490;SDS011;4282;49.986;7.938;2024-01-16T03:55:37;6.43;;;2.93;;
8490;SDS011;4282;49.986;7.938;2024-01-16T03:58:05;3.00;;;2.70;;
8490;SDS011;4282;49.986;7.938;2024-01-16T04:00:33;6.53;;;3.23;;
8490;SDS011;4282;49.986;7.938;2024-01-16T04:03:01;5.53;;;2.67;;
8490;SDS011;4282;49.986;7.938;2024-01-16T04:05:30;6.00;;;2.80;;
8490;SDS011;4282;49.986;7.938;2024-01-16T04:08:01;8.33;;;3.17;;
8490;SDS011;4282;49.986;7.938;2024-01-16T04:10:29;4.27;;;2.90;;
8490;SDS011;4282;49.986;7.938;2024-01-16T04:12:59;5.57;;;3.33;;
8490;SDS011;4282;49.986;7.938;2024-01-16T04:15:28;7.60;;;3.07;;
8490;SDS011;4282;49.986;7.938;2024-01-16T04:17:56;8.47;;;3.03;;
8490;SDS011;4282;49.986;7.938;2024-01-16T04:20:24;4.57;;;2.97;;
8490;SDS011;4282;49.986;7.938;2024-01-16T04:22:52;5.67;;;3.00;;
8490;SDS011;4282;49.986;7.938;2024-01-16T04:25:24;7.20;;;3.53;;
8490;SDS011;4282;49.986;7.938;2024-01-16T04:27:52;4.00;;;2.60;;
8490;SDS011;4282;49.986;7.938;2024-01-16T04:30:20;7.50;;;2.87;;
8490;SDS011;4282;49.986;7.938;2024-01-16T04:32:48;7.63;;;3.57;;
8490;SDS011;4282;49.986;7.938;2024-01-16T04:35:17;5.53;;;2.97;;
8490;SDS011;4282;49.986;7.938;2024-01-16T04:37:45;9.33;;;3.50;;
8490;SDS011;4282;49.986;7.938;2024-01-16T04:40:13;4.10;;;3.13;;
8490;SDS011;4282;49.986;7.938;2024-01-16T04:42:44;8.20;;;3.37;;
8490;SDS011;4282;49.986;7.938;2024-01-16T04:45:12;4.77;;;3.13;;
8490;SDS011;4282;49.986;7.938;2024-01-16T04:47:40;6.17;;;3.47;;
8490;SDS011;4282;49.986;7.938;2024-01-16T04:50:09;8.77;;;3.43;;
8490;SDS011;4282;49.986;7.938;2024-01-16T04:52:37;7.43;;;3.30;;
8490;SDS011;4282;49.986;7.938;2024-01-16T04:55:06;7.73;;;3.97;;
8490;SDS011;4282;49.986;7.938;2024-01-16T04:57:34;10.73;;;4.40;;
8490;SDS011;4282;49.986;7.938;2024-01-16T05:00:05;8.13;;;3.50;;
8490;SDS011;4282;49.986;7.938;2024-01-16T05:02:35;7.77;;;4.00;;
8490;SDS011;4282;49.986;7.938;2024-01-16T05:05:04;7.90;;;4.10;;
8490;SDS011;4282;49.986;7.938;2024-01-16T05:07:33;5.77;;;3.30;;
8490;SDS011;4282;49.986;7.938;2024-01-16T05:10:02;3.73;;;3.20;;
8490;SDS011;4282;49.986;7.938;2024-01-16T05:12:32;5.87;;;3.00;;
8490;SDS011;4282;49.986;7.938;2024-01-16T05:15:00;7.40;;;3.70;;
8490;SDS011;4282;49.986;7.938;2024-01-16T05:17:31;7.57;;;3.80;;
8490;SDS011;4282;49.986;7.938;2024-01-16T05:19:59;8.97;;;3.30;;
8490;SDS011;4282;49.986;7.938;2024-01-16T05:22:30;5.63;;;3.77;;
8490;SDS011;4282;49.986;7.938;2024-01-16T05:24:58;6.07;;;3.50;;
8490;SDS011;4282;49.986;7.938;2024-01-16T05:27:27;5.80;;;3.10;;
8490;SDS011;4282;49.986;7.938;2024-01-16T05:29:55;5.17;;;3.67;;
8490;SDS011;4282;49.986;7.938;2024-01-16T05:32:23;5.57;;;4.03;;
8490;SDS011;4282;49.986;7.938;2024-01-16T05:34:54;9.17;;;4.60;;
8490;SDS011;4282;49.986;7.938;2024-01-16T05:37:22;6.33;;;3.77;;
8490;SDS011;4282;49.986;7.938;2024-01-16T05:39:50;5.50;;;4.13;;
8490;SDS011;4282;49.986;7.938;2024-01-16T05:42:18;9.40;;;3.90;;
8490;SDS011;4282;49.986;7.938;2024-01-16T05:44:46;9.20;;;5.20;;
8490;SDS011;4282;49.986;7.938;2024-01-16T05:47:15;6.73;;;4.87;;
8490;SDS011;4282;49.986;7.938;2024-01-16T05:49:43;6.57;;;3.43;;
8490;SDS011;4282;49.986;7.938;2024-01-16T05:52:14;7.33;;;3.63;;
8490;SDS011;4282;49.986;7.938;2024-01-16T05:54:42;9.53;;;3.67;;
8490;SDS011;4282;49.986;7.938;2024-01-16T05:57:10;5.50;;;4.13;;
8490;SDS011;4282;49.986;7.938;2024-01-16T05:59:38;6.37;;;3.27;;
8490;SDS011;4282;49.986;7.938;2024-01-16T06:02:06;7.33;;;3.33;;
8490;SDS011;4282;49.986;7.938;2024-01-16T06:04:35;7.53;;;4.00;;
8490;SDS011;4282;49.986;7.938;2024-01-16T06:07:04;8.93;;;3.87;;
8490;SDS011;4282;49.986;7.938;2024-01-16T06:09:37;5.40;;;3.13;;
8490;SDS011;4282;49.986;7.938;2024-01-16T06:12:06;6.53;;;3.80;;
8490;SDS011;4282;49.986;7.938;2024-01-16T06:14:37;7.30;;;4.20;;
8490;SDS011;4282;49.986;7.938;2024-01-16T06:17:05;9.17;;;4.17;;
8490;SDS011;4282;49.986;7.938;2024-01-16T06:19:33;8.83;;;5.50;;
8490;SDS011;4282;49.986;7.938;2024-01-16T06:22:02;10.83;;;6.93;;
8490;SDS011;4282;49.986;7.938;2024-01-16T06:24:30;8.33;;;4.70;;
8490;SDS011;4282;49.986;7.938;2024-01-16T06:27:04;7.10;;;5.10;;
8490;SDS011;4282;49.986;7.938;2024-01-16T06:29:34;6.80;;;4.70;;
8490;SDS011;4282;49.986;7.938;2024-01-16T06:32:02;10.10;;;5.13;;
8490;SDS011;4282;49.986;7.938;2024-01-16T06:34:30;11.77;;;5.07;;
8490;SDS011;4282;49.986;7.938;2024-01-16T06:36:59;7.47;;;4.53;;
8490;SDS011;4282;49.986;7.938;2024-01-16T06:39:27;13.17;;;5.23;;
8490;SDS011;4282;49.986;7.938;2024-01-16T06:41:55;7.37;;;5.23;;
8490;SDS011;4282;49.986;7.938;2024-01-16T06:44:26;6.43;;;5.07;;
8490;SDS011;4282;49.986;7.938;2024-01-16T06:46:54;8.33;;;4.90;;
8490;SDS011;4282;49.986;7.938;2024-01-16T06:49:22;7.47;;;5.00;;
8490;SDS011;4282;49.986;7.938;2024-01-16T06:51:52;7.70;;;4.53;;
8490;SDS011;4282;49.986;7.938;2024-01-16T06:54:20;10.23;;;4.40;;
8490;SDS011;4282;49.986;7.938;2024-01-16T06:56:48;7.53;;;4.10;;
8490;SDS011;4282;49.986;7.938;2024-01-16T06:59:16;5.07;;;3.73;;
8490;SDS011;4282;49.986;7.938;2024-01-16T07:01:49;7.50;;;4.30;;
8490;SDS011;4282;49.986;7.938;2024-01-16T07:04:17;9.70;;;3.93;;
8490;SDS011;4282;49.986;7.938;2024-01-16T07:06:45;7.37;;;3.90;;
8490;SDS011;4282;49.986;7.938;2024-01-16T07:09:14;8.37;;;3.93;;
8490;SDS011;4282;49.986;7.938;2024-01-16T07:11:41;5.57;;;4.20;;
8490;SDS011;4282;49.986;7.938;2024-01-16T07:14:09;5.10;;;4.00;;
8490;SDS011;4282;49.986;7.938;2024-01-16T07:16:38;11.13;;;6.87;;
8490;SDS011;4282;49.986;7.938;2024-01-16T07:19:08;8.63;;;6.17;;
8490;SDS011;4282;49.986;7.938;2024-01-16T07:21:37;13.20;;;5.43;;
8490;SDS011;4282;49.986;7.938;2024-01-16T07:24:05;11.03;;;4.80;;
8490;SDS011;4282;49.986;7.938;2024-01-16T07:26:33;6.47;;;4.70;;
8490;SDS011;4282;49.986;7.938;2024-01-16T07:29:02;5.63;;;3.83;;
8490;SDS011;4282;49.986;7.938;2024-01-16T07:31:30;11.40;;;5.17;;
8490;SDS011;4282;49.986;7.938;2024-01-16T07:33:58;7.57;;;4.70;;
8490;SDS011;4282;49.986;7.938;2024-01-16T07:36:29;9.93;;;5.47;;
8490;SDS011;4282;49.986;7.938;2024-01-16T07:38:57;9.50;;;4.77;;
8490;SDS011;4282;49.986;7.938;2024-01-16T07:41:26;7.23;;;4.57;;
8490;SDS011;4282;49.986;7.938;2024-01-16T07:43:54;8.90;;;5.10;;
8490;SDS011;4282;49.986;7.938;2024-01-16T07:46:22;8.07;;;5.37;;
8490;SDS011;4282;49.986;7.938;2024-01-16T07:48:50;9.83;;;5.53;;
8490;SDS011;4282;49.986;7.938;2024-01-16T07:51:19;9.00;;;4.47;;
8490;SDS011;4282;49.986;7.938;2024-01-16T07:53:51;9.97;;;6.03;;
8490;SDS011;4282;49.986;7.938;2024-01-16T07:56:26;7.13;;;4.40;;
8490;SDS011;4282;49.986;7.938;2024-01-16T07:58:54;9.40;;;5.77;;
8490;SDS011;4282;49.986;7.938;2024-01-16T08:01:23;10.93;;;6.40;;
8490;SDS011;4282;49.986;7.938;2024-01-16T08:03:51;13.27;;;5.60;;
8490;SDS011;4282;49.986;7.938;2024-01-16T08:06:19;12.03;;;5.80;;
8490;SDS011;4282;49.986;7.938;2024-01-16T08:08:50;11.20;;;5.50;;
8490;SDS011;4282;49.986;7.938;2024-01-16T08:11:18;8.43;;;5.20;;
8490;SDS011;4282;49.986;7.938;2024-01-16T08:13:47;5.43;;;4.60;;
8490;SDS011;4282;49.986;7.938;2024-01-16T08:16:15;5.87;;;4.47;;
8490;SDS011;4282;49.986;7.938;2024-01-16T08:18:43;8.87;;;4.80;;
8490;SDS011;4282;49.986;7.938;2024-01-16T08:21:11;6.00;;;4.40;;
8490;SDS011;4282;49.986;7.938;2024-01-16T08:23:39;6.73;;;4.60;;
8490;SDS011;4282;49.986;7.938;2024-01-16T08:26:10;8.90;;;5.33;;
8490;SDS011;4282;49.986;7.938;2024-01-16T08:28:38;6.50;;;4.93;;
8490;SDS011;4282;49.986;7.938;2024-01-16T08:31:07;9.53;;;5.20;;
8490;SDS011;4282;49.986;7.938;2024-01-16T08:33:35;9.17;;;5.60;;
8490;SDS011;4282;49.986;7.938;2024-01-16T08:36:03;8.27;;;5.40;;
8490;SDS011;4282;49.986;7.938;2024-01-16T08:38:32;7.57;;;4.90;;
8490;SDS011;4282;49.986;7.938;2024-01-16T08:41:00;10.47;;;4.70;;
8490;SDS011;4282;49.986;7.938;2024-01-16T08:43:34;12.17;;;4.67;;
8490;SDS011;4282;49.986;7.938;2024-01-16T08:46:02;7.87;;;4.47;;
8490;SDS011;4282;49.986;7.938;2024-01-16T08:48:31;9.30;;;5.43;;
8490;SDS011;4282;49.986;7.938;2024-01-16T08:51:00;6.93;;;4.60;;
8490;SDS011;4282;49.986;7.938;2024-01-16T08:53:29;7.23;;;4.57;;
8490;SDS011;4282;49.986;7.938;2024-01-16T08:55:58;7.63;;;5.03;;
8490;SDS011;4282;49.986;7.938;2024-01-16T08:58:27;8.40;;;4.37;;
8490;SDS011;4282;49.986;7.938;2024-01-16T09:01:00;7.60;;;5.03;;
8490;SDS011;4282;49.986;7.938;2024-01-16T09:03:28;6.70;;;4.20;;
8490;SDS011;4282;49.986;7.938;2024-01-16T09:05:57;5.30;;;4.13;;
8490;SDS011;4282;49.986;7.938;2024-01-16T09:08:25;6.80;;;4.27;;
8490;SDS011;4282;49.986;7.938;2024-01-16T09:10:54;10.63;;;4.90;;
8490;SDS011;4282;49.986;7.938;2024-01-16T09:13:22;8.47;;;4.03;;
8490;SDS011;4282;49.986;7.938;2024-01-16T09:15:51;6.87;;;4.30;;
8490;SDS011;4282;49.986;7.938;2024-01-16T09:18:21;7.83;;;4.40;;
8490;SDS011;4282;49.986;7.938;2024-01-16T09:20:50;8.97;;;4.30;;
8490;SDS011;4282;49.986;7.938;2024-01-16T09:23:18;9.70;;;4.03;;
8490;SDS011;4282;49.986;7.938;2024-01-16T09:25:46;7.27;;;3.80;;
8490;SDS011;4282;49.986;7.938;2024-01-16T09:28:15;4.90;;;3.20;;
8490;SDS011;4282;49.986;7.938;2024-01-16T09:30:43;5.73;;;3.63;;
8490;SDS011;4282;49.986;7.938;2024-01-16T09:33:11;6.90;;;4.20;;
8490;SDS011;4282;49.986;7.938;2024-01-16T09:35:44;5.20;;;3.83;;
8490;SDS011;4282;49.986;7.938;2024-01-16T09:38:13;7.57;;;4.53;;
8490;SDS011;4282;49.986;7.938;2024-01-16T09:40:41;7.73;;;4.70;;
8490;SDS011;4282;49.986;7.938;2024-01-16T09:43:09;11.10;;;4.40;;
8490;SDS011;4282;49.986;7.938;2024-01-16T09:45:39;8.40;;;4.23;;
8490;SDS011;4282;49.986;7.938;2024-01-16T09:48:07;9.00;;;4.33;;
8490;SDS011;4282;49.986;7.938;2024-01-16T09:50:36;6.93;;;4.67;;
8490;SDS011;4282;49.986;7.938;2024-01-16T09:53:07;9.60;;;5.13;;
8490;SDS011;4282;49.986;7.938;2024-01-16T09:55:35;10.43;;;4.37;;
8490;SDS011;4282;49.986;7.938;2024-01-16T09:58:04;7.93;;;3.87;;
8490;SDS011;4282;49.986;7.938;2024-01-16T10:00:33;6.00;;;3.60;;
8490;SDS011;4282;49.986;7.938;2024-01-16T10:03:02;7.87;;;4.90;;
8490;SDS011;4282;49.986;7.938;2024-01-16T10:05:30;5.27;;;4.00;;
8490;SDS011;4282;49.986;7.938;2024-01-16T10:07:59;9.77;;;4.13;;
8490;SDS011;4282;49.986;7.938;2024-01-16T10:10:30;8.57;;;4.17;;
8490;SDS011;4282;49.986;7.938;2024-01-16T10:12:58;6.23;;;3.80;;
8490;SDS011;4282;49.986;7.938;2024-01-16T10:15:27;8.33;;;4.53;;
8490;SDS011;4282;49.986;7.938;2024-01-16T10:17:55;8.23;;;5.30;;
8490;SDS011;4282;49.986;7.938;2024-01-16T10:20:34;6.70;;;4.50;;
8490;SDS011;4282;49.986;7.938;2024-01-16T10:23:02;9.03;;;4.10;;
8490;SDS011;4282;49.986;7.938;2024-01-16T10:25:34;6.80;;;4.33;;
8490;SDS011;4282;49.986;7.938;2024-01-16T10:28:03;6.37;;;3.37;;
8490;SDS011;4282;49.986;7.938;2024-01-16T10:30:36;9.00;;;4.27;;
8490;SDS011;4282;49.986;7.938;2024-01-16T10:33:14;8.33;;;4.30;;
8490;SDS011;4282;49.986;7.938;2024-01-16T10:35:43;10.43;;;5.07;;
8490;SDS011;4282;49.986;7.938;2024-01-16T10:38:11;8.30;;;4.77;;
8490;SDS011;4282;49.986;7.938;2024-01-16T10:40:50;8.43;;;4.83;;
8490;SDS011;4282;49.986;7.938;2024-01-16T10:43:32;8.63;;;4.70;;
8490;SDS011;4282;49.986;7.938;2024-01-16T10:46:06;6.30;;;4.40;;
8490;SDS011;4282;49.986;7.938;2024-01-16T10:48:37;8.83;;;4.80;;
8490;SDS011;4282;49.986;7.938;2024-01-16T10:51:06;7.30;;;4.60;;
8490;SDS011;4282;49.986;7.938;2024-01-16T10:53:36;7.13;;;4.53;;
8490;SDS011;4282;49.986;7.938;2024-01-16T10:56:08;8.20;;;5.00;;
8490;SDS011;4282;49.986;7.938;2024-01-16T10:58:39;9.73;;;5.17;;
8490;SDS011;4282;49.986;7.938;2024-01-16T11:01:10;8.87;;;5.33;;
8490;SDS011;4282;49.986;7.938;2024-01-16T11:03:40;9.23;;;4.83;;
8490;SDS011;4282;49.986;7.938;2024-01-16T11:06:08;7.03;;;5.57;;
8490;SDS011;4282;49.986;7.938;2024-01-16T11:08:38;8.40;;;5.13;;
8490;SDS011;4282;49.986;7.938;2024-01-16T11:11:09;9.47;;;4.67;;
8490;SDS011;4282;49.986;7.938;2024-01-16T11:13:38;8.17;;;4.67;;
8490;SDS011;4282;49.986;7.938;2024-01-16T11:16:10;7.37;;;5.13;;
8490;SDS011;4282;49.986;7.938;2024-01-16T11:18:39;6.83;;;4.67;;
8490;SDS011;4282;49.986;7.938;2024-01-16T11:21:08;9.80;;;4.80;;
8490;SDS011;4282;49.986;7.938;2024-01-16T11:23:38;5.97;;;4.87;;
8490;SDS011;4282;49.986;7.938;2024-01-16T11:28:57;6.73;;;4.20;;
8490;SDS011;4282;49.986;7.938;2024-01-16T11:31:32;7.50;;;4.33;;
8490;SDS011;4282;49.986;7.938;2024-01-16T11:34:02;6.47;;;4.17;;
8490;SDS011;4282;49.986;7.938;2024-01-16T11:36:43;7.43;;;4.33;;
8490;SDS011;4282;49.986;7.938;2024-01-16T11:39:11;4.60;;;3.50;;
8490;SDS011;4282;49.986;7.938;2024-01-16T11:41:51;10.23;;;3.97;;
8490;SDS011;4282;49.986;7.938;2024-01-16T11:47:16;5.93;;;3.10;;
8490;SDS011;4282;49.986;7.938;2024-01-16T11:49:45;6.93;;;3.60;;
8490;SDS011;4282;49.986;7.938;2024-01-16T11:52:14;4.37;;;3.47;;
8490;SDS011;4282;49.986;7.938;2024-01-16T11:54:42;6.77;;;4.17;;
8490;SDS011;4282;49.986;7.938;2024-01-16T12:00:04;6.87;;;4.17;;
8490;SDS011;4282;49.986;7.938;2024-01-16T12:02:48;6.03;;;3.83;;
8490;SDS011;4282;49.986;7.938;2024-01-16T12:05:19;5.63;;;3.77;;
8490;SDS011;4282;49.986;7.938;2024-01-16T12:07:48;6.03;;;3.67;;
8490;SDS011;4282;49.986;7.938;2024-01-16T12:10:19;5.23;;;3.23;;
8490;SDS011;4282;49.986;7.938;2024-01-16T12:12:51;5.23;;;3.63;;
8490;SDS011;4282;49.986;7.938;2024-01-16T12:15:24;4.40;;;3.50;;
8490;SDS011;4282;49.986;7.938;2024-01-16T12:17:53;3.80;;;2.60;;
8490;SDS011;4282;49.986;7.938;2024-01-16T12:20:22;4.80;;;2.87;;
8490;SDS011;4282;49.986;7.938;2024-01-16T12:22:54;7.80;;;3.40;;
8490;SDS011;4282;49.986;7.938;2024-01-16T12:25:23;5.83;;;3.03;;
8490;SDS011;4282;49.986;7.938;2024-01-16T12:27:58;4.70;;;3.23;;
8490;SDS011;4282;49.986;7.938;2024-01-16T12:30:27;6.20;;;3.20;;
8490;SDS011;4282;49.986;7.938;2024-01-16T12:33:06;4.60;;;2.57;;
8490;SDS011;4282;49.986;7.938;2024-01-16T12:35:35;5.90;;;3.10;;
8490;SDS011;4282;49.986;7.938;2024-01-16T12:38:04;5.43;;;2.40;;
8490;SDS011;4282;49.986;7.938;2024-01-16T12:40:34;7.10;;;2.13;;
8490;SDS011;4282;49.986;7.938;2024-01-16T12:43:06;3.43;;;1.83;;
8490;SDS011;4282;49.986;7.938;2024-01-16T12:45:35;4.27;;;1.97;;
8490;SDS011;4282;49.986;7.938;2024-01-16T12:48:04;5.37;;;2.07;;
8490;SDS011;4282;49.986;7.938;2024-01-16T12:50:33;4.40;;;1.80;;
8490;SDS011;4282;49.986;7.938;2024-01-16T12:53:02;3.77;;;2.10;;
8490;SDS011;4282;49.986;7.938;2024-01-16T12:55:32;4.77;;;2.60;;
8490;SDS011;4282;49.986;7.938;2024-01-16T12:58:14;5.93;;;2.07;;
8490;SDS011;4282;49.986;7.938;2024-01-16T13:00:43;5.20;;;2.30;;
8490;SDS011;4282;49.986;7.938;2024-01-16T13:03:15;6.20;;;2.40;;
8490;SDS011;4282;49.986;7.938;2024-01-16T13:05:45;6.07;;;2.43;;
8490;SDS011;4282;49.986;7.938;2024-01-16T13:08:17;3.43;;;2.03;;
8490;SDS011;4282;49.986;7.938;2024-01-16T13:10:47;5.03;;;1.80;;
8490;SDS011;4282;49.986;7.938;2024-01-16T13:13:32;5.40;;;2.00;;
8490;SDS011;4282;49.986;7.938;2024-01-16T13:16:01;4.60;;;2.23;;
8490;SDS011;4282;49.986;7.938;2024-01-16T13:18:31;3.40;;;2.17;;
8490;SDS011;4282;49.986;7.938;2024-01-16T13:20:59;5.43;;;2.80;;
8490;SDS011;4282;49.986;7.938;2024-01-16T13:23:28;7.93;;;2.43;;
8490;SDS011;4282;49.986;7.938;2024-01-16T13:25:56;7.10;;;2.77;;
8490;SDS011;4282;49.986;7.938;2024-01-16T13:28:25;6.97;;;2.00;;
8490;SDS011;4282;49.986;7.938;2024-01-16T13:30:56;3.47;;;1.63;;
8490;SDS011;4282;49.986;7.938;2024-01-16T13:33:25;3.70;;;2.23;;
8490;SDS011;4282;49.986;7.938;2024-01-16T13:35:54;6.83;;;2.50;;
8490;SDS011;4282;49.986;7.938;2024-01-16T13:38:22;6.67;;;2.90;;
8490;SDS011;4282;49.986;7.938;2024-01-16T13:40:51;6.23;;;2.77;;
8490;SDS011;4282;49.986;7.938;2024-01-16T13:43:19;5.60;;;2.70;;
8490;SDS011;4282;49.986;7.938;2024-01-16T13:45:47;5.40;;;2.27;;
8490;SDS011;4282;49.986;7.938;2024-01-16T13:48:19;3.43;;;1.70;;
8490;SDS011;4282;49.986;7.938;2024-01-16T13:50:47;3.50;;;1.73;;
8490;SDS011;4282;49.986;7.938;2024-01-16T13:53:15;4.90;;;1.60;;
8490;SDS011;4282;49.986;7.938;2024-01-16T13:55:44;5.07;;;1.90;;
8490;SDS011;4282;49.986;7.938;2024-01-16T13:58:12;9.93;;;2.10;;
8490;SDS011;4282;49.986;7.938;2024-01-16T14:00:40;4.50;;;2.20;;
8490;SDS011;4282;49.986;7.938;2024-01-16T14:03:08;4.87;;;2.20;;
8490;SDS011;4282;49.986;7.938;2024-01-16T14:05:39;5.03;;;2.10;;
8490;SDS011;4282;49.986;7.938;2024-01-16T14:08:08;7.17;;;1.93;;
8490;SDS011;4282;49.986;7.938;2024-01-16T14:10:38;5.90;;;1.90;;
8490;SDS011;4282;49.986;7.938;2024-01-16T14:13:06;3.40;;;1.67;;
8490;SDS011;4282;49.986;7.938;2024-01-16T14:15:35;2.33;;;1.80;;
8490;SDS011;4282;49.986;7.938;2024-01-16T14:18:04;4.90;;;1.93;;
8490;SDS011;4282;49.986;7.938;2024-01-16T14:20:34;5.00;;;2.07;;
8490;SDS011;4282;49.986;7.938;2024-01-16T14:23:05;4.37;;;2.33;;
8490;SDS011;4282;49.986;7.938;2024-01-16T14:25:33;6.47;;;1.90;;
8490;SDS011;4282;49.986;7.938;2024-01-16T14:28:02;4.30;;;1.87;;
8490;SDS011;4282;49.986;7.938;2024-01-16T14:30:31;3.20;;;1.80;;
8490;SDS011;4282;49.986;7.938;2024-01-16T14:33:00;2.93;;;1.90;;
8490;SDS011;4282;49.986;7.938;2024-01-16T14:35:31;5.80;;;2.30;;
8490;SDS011;4282;49.986;7.938;2024-01-16T14:38:00;3.80;;;2.13;;
8490;SDS011;4282;49.986;7.938;2024-01-16T14:40:30;3.33;;;2.23;;
8490;SDS011;4282;49.986;7.938;2024-01-16T14:42:59;4.33;;;2.13;;
8490;SDS011;4282;49.986;7.938;2024-01-16T14:45:29;6.47;;;2.27;;
8490;SDS011;4282;49.986;7.938;2024-01-16T14:47:58;4.70;;;2.33;;
8490;SDS011;4282;49.986;7.938;2024-01-16T14:50:28;2.80;;;1.90;;
8490;SDS011;4282;49.986;7.938;2024-01-16T14:52:57;3.03;;;2.20;;
8490;SDS011;4282;49.986;7.938;2024-01-16T14:55:30;5.00;;;2.33;;
8490;SDS011;4282;49.986;7.938;2024-01-16T14:57:58;7.77;;;2.77;;
8490;SDS011;4282;49.986;7.938;2024-01-16T15:00:27;4.97;;;2.57;;
8490;SDS011;4282;49.986;7.938;2024-01-16T15:02:57;5.93;;;2.23;;
8490;SDS011;4282;49.986;7.938;2024-01-16T15:05:25;5.03;;;2.37;;
8490;SDS011;4282;49.986;7.938;2024-01-16T15:07:53;3.23;;;1.70;;
8490;SDS011;4282;49.986;7.938;2024-01-16T15:10:21;4.97;;;2.30;;
8490;SDS011;4282;49.986;7.938;2024-01-16T15:12:52;3.93;;;2.23;;
8490;SDS011;4282;49.986;7.938;2024-01-16T15:15:21;6.60;;;2.80;;
8490;SDS011;4282;49.986;7.938;2024-01-16T15:17:49;4.87;;;2.13;;
8490;SDS011;4282;49.986;7.938;2024-01-16T15:20:17;2.97;;;1.87;;
8490;SDS011;4282;49.986;7.938;2024-01-16T15:22:45;5.67;;;2.30;;
8490;SDS011;4282;49.986;7.938;2024-01-16T15:25:17;4.53;;;2.50;;
8490;SDS011;4282;49.986;7.938;2024-01-16T15:27:47;6.00;;;2.80;;
8490;SDS011;4282;49.986;7.938;2024-01-16T15:30:21;6.77;;;2.70;;
8490;SDS011;4282;49.986;7.938;2024-01-16T15:32:53;4.40;;;3.17;;
8490;SDS011;4282;49.986;7.938;2024-01-16T15:35:21;5.73;;;2.57;;
8490;SDS011;4282;49.986;7.938;2024-01-16T15:37:50;6.87;;;3.10;;